CheckWX is a tool to help pilots better visualize weather data.  It is not intended as a substitute for an official pre-flight weather briefing.

13:02:36 UTC

ENSS METAR
Vardø , Svartnes Airport
Vardø, Norway
Current

2 hours ago

ENSS 161050Z 05008KT 9999 SCT010 BKN014 07/02 Q1018 RMK WIND 500FT 02006KT
Observed
Jul-16 @ 10:50 UTC
Wind
  • 050° at 8 KTS
Visibility
10,000+ meters
Flight Rules
MVFR
Cloud Levels
  • Scattered at 1,000' AGL
  • Broken at 1,400' AGL
Temperature
C / 45°F
Dewpoint
C / 36°F
Humidity
71%
Altimeter
30.06" Hg
Pressure
1017.92 hPa
Previous

3 hours ago

ENSS 160950Z 08008KT 9999 BKN014 07/04 Q1018 RMK WIND 500FT 05016KT
Observed
Jul-16 @ 09:50 UTC
Wind
  • 080° at 8 KTS
Visibility
10,000+ meters
Flight Rules
MVFR
Cloud Levels
  • Broken at 1,400' AGL
Temperature
C / 45°F
Dewpoint
C / 39°F
Humidity
81%
Altimeter
30.06" Hg
Pressure
1017.92 hPa
Previous

4 hours ago

ENSS 160850Z 07009KT 9999 BKN013 07/05 Q1018 RMK WIND 500FT 05017KT
Observed
Jul-16 @ 08:50 UTC
Wind
  • 070° at 9 KTS
Visibility
10,000+ meters
Flight Rules
MVFR
Cloud Levels
  • Broken at 1,300' AGL
Temperature
C / 45°F
Dewpoint
C / 41°F
Humidity
87%
Altimeter
30.06" Hg
Pressure
1017.92 hPa